createdAt,value
2023-03-05T00:01:33.536Z,14.97
2023-03-05T00:04:02.931Z,13.00
2023-03-05T00:06:32.387Z,10.60
2023-03-05T00:09:01.012Z,10.90
2023-03-05T00:11:31.791Z,10.93
2023-03-05T00:14:01.145Z,13.20
2023-03-05T00:16:30.662Z,13.03
2023-03-05T00:19:00.613Z,12.37
2023-03-05T00:21:30.746Z,11.80
2023-03-05T00:24:02.192Z,15.63
2023-03-05T00:26:34.439Z,11.30
2023-03-05T00:29:02.912Z,10.90
2023-03-05T00:31:34.080Z,14.87
2023-03-05T00:34:04.456Z,11.70
2023-03-05T00:36:33.460Z,14.50
2023-03-05T00:39:01.752Z,11.80
2023-03-05T00:41:31.418Z,11.97
2023-03-05T00:43:59.603Z,14.77
2023-03-05T00:46:28.041Z,11.10
2023-03-05T00:48:56.501Z,11.20
2023-03-05T00:51:25.476Z,11.70
2023-03-05T00:53:53.634Z,12.93
2023-03-05T00:56:21.840Z,11.37
2023-03-05T00:58:51.679Z,12.07
2023-03-05T01:01:20.087Z,12.90
2023-03-05T01:03:48.222Z,10.43
2023-03-05T01:06:17.520Z,12.03
2023-03-05T01:08:46.165Z,11.23
2023-03-05T01:11:14.400Z,10.70
2023-03-05T01:13:42.696Z,11.67
2023-03-05T01:16:12.235Z,12.60
2023-03-05T01:18:40.889Z,11.77
2023-03-05T01:21:09.632Z,13.60
2023-03-05T01:23:38.395Z,14.67
2023-03-05T01:26:08.530Z,11.43
2023-03-05T01:28:38.139Z,13.37
2023-03-05T01:31:09.450Z,12.70
2023-03-05T01:33:39.120Z,12.50
2023-03-05T01:36:13.443Z,13.37
2023-03-05T01:38:41.700Z,11.50
2023-03-05T01:41:10.459Z,12.53
2023-03-05T01:43:38.579Z,11.37
2023-03-05T01:46:37.526Z,11.40
2023-03-05T01:49:12.842Z,10.53
2023-03-05T01:51:45.830Z,11.00
2023-03-05T01:54:18.120Z,13.67
2023-03-05T01:56:49.242Z,12.13
2023-03-05T01:59:18.732Z,12.10
2023-03-05T02:01:51.723Z,11.10
2023-03-05T02:04:24.961Z,10.27
2023-03-05T02:06:53.123Z,12.00
2023-03-05T02:09:23.514Z,10.17
2023-03-05T02:11:52.154Z,11.10
2023-03-05T02:14:20.604Z,13.40
2023-03-05T02:16:48.790Z,15.60
2023-03-05T02:19:16.995Z,14.83
2023-03-05T02:21:47.548Z,12.30
2023-03-05T02:24:16.626Z,11.50
2023-03-05T02:26:45.872Z,11.50
2023-03-05T02:29:18.712Z,11.30
2023-03-05T02:31:47.097Z,13.20
2023-03-05T02:34:15.504Z,11.17
2023-03-05T02:36:43.580Z,11.00
2023-03-05T02:39:13.067Z,12.30
2023-03-05T02:41:41.096Z,13.93
2023-03-05T02:44:09.333Z,12.30
2023-03-05T02:46:37.352Z,10.90
2023-03-05T02:49:05.403Z,10.60
2023-03-05T02:51:33.457Z,11.97
2023-03-05T02:54:01.507Z,15.17
2023-03-05T02:56:31.004Z,12.10
2023-03-05T02:58:59.124Z,11.80
2023-03-05T03:01:28.402Z,13.97
2023-03-05T03:03:57.270Z,12.07
2023-03-05T03:06:25.369Z,12.20
2023-03-05T03:08:53.424Z,11.43
2023-03-05T03:11:21.580Z,11.67
2023-03-05T03:13:51.004Z,11.57
2023-03-05T03:16:19.111Z,15.97
2023-03-05T03:18:48.813Z,13.03
2023-03-05T03:21:22.179Z,12.67
2023-03-05T03:24:05.271Z,11.57
2023-03-05T03:26:33.374Z,13.10
2023-03-05T03:29:03.018Z,10.17
2023-03-05T03:31:31.071Z,11.77
2023-03-05T03:33:59.183Z,11.23
2023-03-05T03:36:27.307Z,11.83
2023-03-05T03:38:55.356Z,9.37
2023-03-05T03:41:23.470Z,11.80
2023-03-05T03:43:51.528Z,14.63
2023-03-05T03:46:21.092Z,9.47
2023-03-05T03:48:51.583Z,10.43
2023-03-05T03:51:19.925Z,10.87
2023-03-05T03:53:48.289Z,14.93
2023-03-05T03:56:16.311Z,10.50
2023-03-05T03:58:44.507Z,11.77
2023-03-05T04:01:12.612Z,13.43
2023-03-05T04:03:42.025Z,11.47
2023-03-05T04:06:10.172Z,10.70
2023-03-05T04:08:38.228Z,13.73
2023-03-05T04:11:06.514Z,13.03
2023-03-05T04:13:34.593Z,11.87
2023-03-05T04:16:02.769Z,13.23
2023-03-05T04:18:32.516Z,10.23
2023-03-05T04:21:02.105Z,11.07
2023-03-05T04:23:30.302Z,13.40
2023-03-05T04:25:58.735Z,14.10
2023-03-05T04:28:27.002Z,11.60
2023-03-05T04:30:55.268Z,13.40
2023-03-05T04:33:23.549Z,13.93
2023-03-05T04:35:52.188Z,11.87
2023-03-05T04:38:21.763Z,11.70
2023-03-05T04:40:50.143Z,12.50
2023-03-05T04:43:18.208Z,15.33
2023-03-05T04:45:46.368Z,9.77
2023-03-05T04:48:14.659Z,13.03
2023-03-05T04:50:42.743Z,13.27
2023-03-05T04:53:10.813Z,11.97
2023-03-05T04:55:40.310Z,9.10
2023-03-05T04:58:08.364Z,13.83
2023-03-05T05:00:36.440Z,10.97
2023-03-05T05:03:04.634Z,13.47
2023-03-05T05:05:32.710Z,13.93
2023-03-05T05:08:00.817Z,12.40
2023-03-05T05:10:29.204Z,14.23
2023-03-05T05:12:58.757Z,11.03
2023-03-05T05:15:26.831Z,14.83
2023-03-05T05:17:54.924Z,13.63
2023-03-05T05:20:23.224Z,10.37
2023-03-05T05:22:51.879Z,10.40
2023-03-05T05:25:20.177Z,13.00
2023-03-05T05:27:48.228Z,12.20
2023-03-05T05:30:18.919Z,16.53
2023-03-05T05:32:46.992Z,11.97
2023-03-05T05:35:15.089Z,11.00
2023-03-05T05:37:43.207Z,14.40
2023-03-05T05:40:12.512Z,12.10
2023-03-05T05:42:40.646Z,14.60
2023-03-05T05:45:10.200Z,14.63
2023-03-05T05:47:39.727Z,14.57
2023-03-05T05:50:08.778Z,13.80
2023-03-05T05:52:36.855Z,11.97
2023-03-05T05:55:05.624Z,12.73
2023-03-05T05:57:33.741Z,11.53
2023-03-05T06:00:01.798Z,11.17
2023-03-05T06:02:29.885Z,14.93
2023-03-05T06:04:59.565Z,12.27
2023-03-05T06:07:27.687Z,10.83
2023-03-05T06:09:55.751Z,10.83
2023-03-05T06:12:23.860Z,14.90
2023-03-05T06:14:51.970Z,12.00
2023-03-05T06:17:29.892Z,12.03
2023-03-05T06:20:01.048Z,14.37
2023-03-05T06:22:29.516Z,9.10
2023-03-05T06:24:57.872Z,16.37
2023-03-05T06:27:25.948Z,10.60
2023-03-05T06:29:56.602Z,12.33
2023-03-05T06:32:24.851Z,12.70
2023-03-05T06:34:53.063Z,16.57
2023-03-05T06:37:22.547Z,12.50
2023-03-05T06:39:50.648Z,12.83
2023-03-05T06:42:19.390Z,10.57
2023-03-05T06:44:48.403Z,10.40
2023-03-05T06:47:16.714Z,10.57
2023-03-05T06:49:44.834Z,11.57
2023-03-05T06:52:12.952Z,12.63
2023-03-05T06:54:42.386Z,9.07
2023-03-05T06:57:11.507Z,11.00
2023-03-05T06:59:41.978Z,14.47
2023-03-05T07:02:13.605Z,12.50
2023-03-05T07:04:41.810Z,12.80
2023-03-05T07:07:09.845Z,12.73
2023-03-05T07:09:42.854Z,10.13
2023-03-05T07:12:12.684Z,14.67
2023-03-05T07:14:40.802Z,12.83
2023-03-05T07:17:09.175Z,13.10
2023-03-05T07:19:37.275Z,11.43
2023-03-05T07:22:05.330Z,10.40
2023-03-05T07:24:33.401Z,13.37
2023-03-05T07:27:01.444Z,13.63
2023-03-05T07:29:30.863Z,16.10
2023-03-05T07:31:58.994Z,12.93
2023-03-05T07:34:27.354Z,11.83
2023-03-05T07:36:55.522Z,13.13
2023-03-05T07:39:23.629Z,9.63
2023-03-05T07:41:52.615Z,10.60
2023-03-05T07:44:23.732Z,9.77
2023-03-05T07:46:59.316Z,12.93
2023-03-05T07:49:46.200Z,14.17
2023-03-05T07:52:29.552Z,15.93
2023-03-05T07:55:33.103Z,12.57
2023-03-05T07:58:42.293Z,12.37
2023-03-05T08:01:46.345Z,13.57
2023-03-05T08:04:15.931Z,11.20
2023-03-05T08:06:44.003Z,11.27
2023-03-05T08:09:12.059Z,16.03
2023-03-05T08:11:40.852Z,14.00
2023-03-05T08:14:09.301Z,10.03
2023-03-05T08:16:37.397Z,11.97
2023-03-05T08:19:05.493Z,11.87
2023-03-05T08:21:36.559Z,11.50
2023-03-05T08:24:07.215Z,12.10
2023-03-05T08:26:38.373Z,12.67
2023-03-05T08:29:07.178Z,11.00
2023-03-05T08:31:35.572Z,9.77
2023-03-05T08:34:04.055Z,11.73
2023-03-05T08:36:34.224Z,8.83
2023-03-05T08:39:02.381Z,9.83
2023-03-05T08:41:30.606Z,13.70
2023-03-05T08:43:58.692Z,8.60
2023-03-05T08:46:26.929Z,14.10
2023-03-05T08:48:57.060Z,9.33
2023-03-05T08:51:27.067Z,9.63
2023-03-05T08:53:59.280Z,9.53
2023-03-05T08:56:28.593Z,8.27
2023-03-05T08:58:56.682Z,10.97
2023-03-05T09:01:25.039Z,11.50
2023-03-05T09:03:53.341Z,10.77
2023-03-05T09:06:21.488Z,7.90
2023-03-05T09:08:49.730Z,11.07
2023-03-05T09:11:19.313Z,10.00
2023-03-05T09:13:47.565Z,12.17
2023-03-05T09:16:17.653Z,8.13
2023-03-05T09:18:45.999Z,9.00
2023-03-05T09:21:17.505Z,10.30
2023-03-05T09:23:47.322Z,8.97
2023-03-05T09:26:19.203Z,9.10
2023-03-05T09:28:49.507Z,8.23
2023-03-05T09:31:17.940Z,7.90
2023-03-05T09:33:46.500Z,7.80
2023-03-05T09:36:20.805Z,7.30
2023-03-05T09:38:49.041Z,10.23
2023-03-05T09:41:22.952Z,7.33
2023-03-05T09:44:00.578Z,10.20
2023-03-05T09:46:38.619Z,9.73
2023-03-05T09:49:17.101Z,11.33
2023-03-05T09:51:47.544Z,9.23
2023-03-05T09:54:20.012Z,8.40
2023-03-05T09:56:51.011Z,7.60
2023-03-05T09:59:29.854Z,8.57
2023-03-05T10:02:01.181Z,8.17
2023-03-05T10:04:43.897Z,10.20
2023-03-05T10:07:18.677Z,9.37
2023-03-05T10:09:51.114Z,9.00
2023-03-05T10:12:27.794Z,10.10
2023-03-05T10:14:57.452Z,9.33
2023-03-05T10:18:05.199Z,8.97
2023-03-05T10:20:59.047Z,7.60
2023-03-05T10:23:32.484Z,9.40
2023-03-05T10:26:11.712Z,7.70
2023-03-05T10:28:49.107Z,9.17
2023-03-05T10:31:41.908Z,7.43
2023-03-05T10:34:33.317Z,10.17
2023-03-05T10:37:21.378Z,8.60
2023-03-05T10:40:13.027Z,8.03
2023-03-05T10:42:48.355Z,9.27
2023-03-05T10:45:19.707Z,10.27
2023-03-05T10:47:53.479Z,9.10
2023-03-05T10:50:24.083Z,10.60
2023-03-05T10:53:05.930Z,10.47
2023-03-05T10:55:34.126Z,8.10
2023-03-05T10:58:03.277Z,8.27
2023-03-05T11:00:32.317Z,10.00
2023-03-05T11:03:04.117Z,9.77
2023-03-05T11:05:43.514Z,7.67
2023-03-05T11:08:28.123Z,8.03
2023-03-05T11:11:12.090Z,9.82
2023-03-05T11:13:51.205Z,9.20
2023-03-05T11:16:21.997Z,8.33
2023-03-05T11:19:11.735Z,7.20
2023-03-05T11:21:39.986Z,6.97
2023-03-05T11:24:14.009Z,9.00
2023-03-05T11:26:49.762Z,6.87
2023-03-05T11:29:23.179Z,8.67
2023-03-05T11:31:52.072Z,9.00
2023-03-05T11:34:31.498Z,9.53
2023-03-05T11:37:06.457Z,10.60
2023-03-05T11:39:38.435Z,9.97
2023-03-05T11:42:11.720Z,7.90
2023-03-05T11:44:47.882Z,7.30
2023-03-05T11:47:24.957Z,8.90
2023-03-05T11:50:02.186Z,7.37
2023-03-05T11:52:33.457Z,7.20
2023-03-05T11:55:05.690Z,5.83
2023-03-05T11:57:40.493Z,8.50
2023-03-05T12:00:14.297Z,9.30
2023-03-05T12:02:42.927Z,8.73
2023-03-05T12:05:17.335Z,8.97
2023-03-05T12:07:50.031Z,8.70
2023-03-05T12:10:19.782Z,8.87
2023-03-05T12:12:54.101Z,7.03
2023-03-05T12:15:55.776Z,6.90
2023-03-05T12:18:34.976Z,9.53
2023-03-05T12:21:08.805Z,7.70
2023-03-05T12:23:49.198Z,6.63
2023-03-05T12:26:17.431Z,10.13
2023-03-05T12:28:56.227Z,8.63
2023-03-05T12:31:37.769Z,7.40
2023-03-05T12:34:37.021Z,8.50
2023-03-05T12:37:10.678Z,7.70
2023-03-05T12:39:52.690Z,8.17
2023-03-05T12:43:00.458Z,9.07
2023-03-05T12:45:31.976Z,7.00
2023-03-05T12:48:37.461Z,9.37
2023-03-05T12:51:05.896Z,6.90
2023-03-05T12:53:35.335Z,7.40
2023-03-05T12:56:13.131Z,8.83
2023-03-05T12:58:45.604Z,7.93
2023-03-05T13:09:01.604Z,8.63
2023-03-05T13:15:18.868Z,8.60
2023-03-05T13:17:55.477Z,6.70
2023-03-05T13:20:31.375Z,8.67
2023-03-05T13:23:26.713Z,6.50
2023-03-05T13:26:15.552Z,8.97
2023-03-05T13:28:45.410Z,6.53
2023-03-05T13:31:22.523Z,9.30
2023-03-05T13:33:54.359Z,8.67
2023-03-05T13:36:23.505Z,7.47
2023-03-05T13:38:52.258Z,9.80
2023-03-05T13:41:23.155Z,8.13
2023-03-05T13:43:53.419Z,6.20
2023-03-05T13:46:28.121Z,8.87
2023-03-05T13:48:56.775Z,8.43
2023-03-05T13:51:25.763Z,8.50
2023-03-05T13:53:54.566Z,9.43
2023-03-05T13:56:23.005Z,8.93
2023-03-05T13:58:53.382Z,7.70
2023-03-05T14:01:31.670Z,7.60
2023-03-05T14:04:06.196Z,8.10
2023-03-05T14:06:39.611Z,9.80
2023-03-05T14:09:10.252Z,7.57
2023-03-05T14:11:38.478Z,7.30
2023-03-05T14:14:17.837Z,9.20
2023-03-05T14:16:47.635Z,9.80
2023-03-05T14:19:34.773Z,10.97
2023-03-05T14:22:03.588Z,7.60
2023-03-05T14:24:32.199Z,10.10
2023-03-05T14:27:03.395Z,6.00
2023-03-05T14:29:31.712Z,6.53
2023-03-05T14:32:05.249Z,8.43
2023-03-05T14:34:35.358Z,7.37
2023-03-05T14:37:05.868Z,7.43
2023-03-05T14:39:52.969Z,10.47
2023-03-05T14:42:30.515Z,9.03
2023-03-05T14:45:01.038Z,8.67
2023-03-05T14:47:30.757Z,7.17
2023-03-05T14:49:58.841Z,9.10
2023-03-05T14:52:28.299Z,7.50
2023-03-05T14:54:56.939Z,8.30
2023-03-05T14:57:27.661Z,6.73
2023-03-05T14:59:56.658Z,7.67
2023-03-05T15:02:26.156Z,8.07
2023-03-05T15:04:55.667Z,8.43
2023-03-05T15:07:28.035Z,7.77
2023-03-05T15:09:56.225Z,7.47
2023-03-05T15:12:25.343Z,8.20
2023-03-05T15:14:57.119Z,7.30
2023-03-05T15:17:33.886Z,8.83
2023-03-05T15:20:07.754Z,6.33
2023-03-05T15:22:36.282Z,6.23
2023-03-05T15:25:04.762Z,8.67
2023-03-05T15:27:32.924Z,9.57
2023-03-05T15:30:01.104Z,6.70
2023-03-05T15:32:30.707Z,9.53
2023-03-05T15:34:59.900Z,10.33
2023-03-05T15:37:29.782Z,6.77
2023-03-05T15:39:57.911Z,6.47
2023-03-05T15:42:26.077Z,7.50
2023-03-05T15:44:54.281Z,8.10
2023-03-05T15:47:22.411Z,7.27
2023-03-05T15:49:53.563Z,6.03
2023-03-05T15:52:21.776Z,7.20
2023-03-05T15:54:51.469Z,6.70
2023-03-05T15:57:22.639Z,6.90
2023-03-05T15:59:51.150Z,5.77
2023-03-05T16:02:19.910Z,7.70
2023-03-05T16:04:48.285Z,7.70
2023-03-05T16:07:17.288Z,8.30
2023-03-05T16:09:48.540Z,7.10
2023-03-05T16:12:23.202Z,8.23
2023-03-05T16:14:52.123Z,5.57
2023-03-05T16:17:21.763Z,9.50
2023-03-05T16:19:52.636Z,10.00
2023-03-05T16:22:20.750Z,8.00
2023-03-05T16:24:49.033Z,8.03
2023-03-05T16:27:18.587Z,7.40
2023-03-05T16:29:47.141Z,7.77
2023-03-05T16:32:16.220Z,7.37
2023-03-05T16:34:44.450Z,9.93
2023-03-05T16:37:19.367Z,7.17
2023-03-05T16:39:47.644Z,8.73
2023-03-05T16:42:15.753Z,7.27
2023-03-05T16:44:45.387Z,8.90
2023-03-05T16:47:13.626Z,8.80
2023-03-05T16:49:41.987Z,6.43
2023-03-05T16:52:18.828Z,7.47
2023-03-05T16:54:48.071Z,6.70
2023-03-05T16:57:16.831Z,9.10
2023-03-05T16:59:46.349Z,9.23
2023-03-05T17:02:15.422Z,8.53
2023-03-05T17:04:43.974Z,7.07
2023-03-05T17:07:12.566Z,8.17
2023-03-05T17:09:40.997Z,8.60
2023-03-05T17:12:09.221Z,9.83
2023-03-05T17:14:37.511Z,7.85
2023-03-05T17:17:07.032Z,8.50
2023-03-05T17:19:35.197Z,9.17
2023-03-05T17:22:03.514Z,7.93
2023-03-05T17:24:32.931Z,7.30
2023-03-05T17:27:01.538Z,6.47
2023-03-05T17:29:30.638Z,7.10
2023-03-05T17:31:58.868Z,6.67
2023-03-05T17:34:36.158Z,8.23
2023-03-05T17:37:05.271Z,8.53
2023-03-05T17:39:34.155Z,6.63
2023-03-05T17:42:02.504Z,9.10
2023-03-05T17:44:30.806Z,7.07
2023-03-05T17:46:58.967Z,6.83
2023-03-05T17:49:28.526Z,7.00
2023-03-05T17:51:57.368Z,8.57
2023-03-05T17:54:25.645Z,7.40
2023-03-05T17:56:55.475Z,5.97
2023-03-05T17:59:23.605Z,8.33
2023-03-05T18:01:51.884Z,5.10
2023-03-05T18:04:20.534Z,6.50
2023-03-05T18:06:50.150Z,9.03
2023-03-05T18:09:18.410Z,6.23
2023-03-05T18:11:46.608Z,6.30
2023-03-05T18:14:16.833Z,8.13
2023-03-05T18:16:45.479Z,6.90
2023-03-05T18:19:13.663Z,8.73
2023-03-05T18:21:42.609Z,6.60
2023-03-05T18:24:12.092Z,7.70
2023-03-05T18:26:42.029Z,9.80
2023-03-05T18:29:10.248Z,8.37
2023-03-05T18:31:38.444Z,7.57
2023-03-05T18:34:06.576Z,8.03
2023-03-05T18:36:34.844Z,9.43
2023-03-05T18:39:03.064Z,10.67
2023-03-05T18:41:32.768Z,11.30
2023-03-05T18:44:01.821Z,9.80
2023-03-05T18:50:14.921Z,8.90
2023-03-05T18:52:43.423Z,9.60
2023-03-05T18:55:15.711Z,8.13
2023-03-05T18:57:45.291Z,9.80
2023-03-05T19:00:15.685Z,9.00
2023-03-05T19:02:44.015Z,7.43
2023-03-05T19:05:13.735Z,8.10
2023-03-05T19:07:42.336Z,5.90
2023-03-05T19:10:13.724Z,7.93
2023-03-05T19:12:49.174Z,7.23
2023-03-05T19:15:19.010Z,8.77
2023-03-05T19:17:47.848Z,7.27
2023-03-05T19:20:17.163Z,9.57
2023-03-05T19:22:45.440Z,9.25
2023-03-05T19:25:13.934Z,11.77
2023-03-05T19:27:41.993Z,10.67
2023-03-05T19:30:12.139Z,11.77
2023-03-05T19:32:41.625Z,7.77
2023-03-05T19:35:11.794Z,13.27
2023-03-05T19:37:40.401Z,10.60
2023-03-05T19:40:09.696Z,10.00
2023-03-05T19:42:39.021Z,10.07
2023-03-05T19:45:08.442Z,10.83
2023-03-05T19:47:36.684Z,9.10
2023-03-05T19:50:07.315Z,10.30
2023-03-05T19:52:35.446Z,11.00
2023-03-05T19:55:04.082Z,13.20
2023-03-05T19:57:32.174Z,12.97
2023-03-05T20:00:00.240Z,10.57
2023-03-05T20:02:28.405Z,7.90
2023-03-05T20:04:57.505Z,7.53
2023-03-05T20:07:26.967Z,7.20
2023-03-05T20:09:55.558Z,8.23
2023-03-05T20:12:23.948Z,8.10
2023-03-05T20:14:52.045Z,6.23
2023-03-05T20:17:20.632Z,6.23
2023-03-05T20:19:48.717Z,6.57
2023-03-05T20:22:16.851Z,7.07
2023-03-05T20:24:47.285Z,9.13
2023-03-05T20:27:15.304Z,6.93
2023-03-05T20:29:43.330Z,8.20
2023-03-05T20:32:11.478Z,8.53
2023-03-05T20:34:39.604Z,8.30
2023-03-05T20:37:07.868Z,8.47
2023-03-05T20:39:35.953Z,7.00
2023-03-05T20:42:05.561Z,8.73
2023-03-05T20:44:33.642Z,7.80
2023-03-05T20:47:16.023Z,12.03
2023-03-05T20:49:44.132Z,7.83
2023-03-05T20:52:12.173Z,6.37
2023-03-05T20:54:40.296Z,9.83
2023-03-05T20:57:09.757Z,7.97
2023-03-05T20:59:37.792Z,9.70
2023-03-05T21:02:05.940Z,9.07
2023-03-05T21:04:34.118Z,10.13
2023-03-05T21:07:04.039Z,9.20
2023-03-05T21:09:32.092Z,7.30
2023-03-05T21:12:00.255Z,8.57
2023-03-05T21:14:29.783Z,9.30
2023-03-05T21:16:57.849Z,8.33
2023-03-05T21:19:25.915Z,9.50
2023-03-05T21:21:53.979Z,9.80
2023-03-05T21:24:24.061Z,8.57
2023-03-05T21:26:52.178Z,8.87
2023-03-05T21:29:20.240Z,8.83
2023-03-05T21:31:49.745Z,10.37
2023-03-05T21:34:19.077Z,8.47
2023-03-05T21:36:47.140Z,9.13
2023-03-05T21:39:15.244Z,10.93
2023-03-05T21:41:46.491Z,8.63
2023-03-05T21:44:17.646Z,9.33
2023-03-05T21:46:45.729Z,8.10
2023-03-05T21:49:15.240Z,7.63
2023-03-05T21:51:57.100Z,7.07
2023-03-05T21:54:26.067Z,8.17
2023-03-05T21:56:55.415Z,6.80
2023-03-05T21:59:23.644Z,10.00
2023-03-05T22:01:52.629Z,9.80
2023-03-05T22:04:22.134Z,6.90
2023-03-05T22:06:50.201Z,7.73
2023-03-05T22:09:18.297Z,6.53
2023-03-05T22:11:46.400Z,7.23
2023-03-05T22:14:16.800Z,9.67
2023-03-05T22:16:46.171Z,8.03
2023-03-05T22:19:14.328Z,9.07
2023-03-05T22:21:43.820Z,9.47
2023-03-05T22:24:11.863Z,10.40
2023-03-05T22:26:41.772Z,6.57
2023-03-05T22:29:11.683Z,9.47
2023-03-05T22:31:40.567Z,10.30
2023-03-05T22:34:08.666Z,7.97
2023-03-05T22:36:37.448Z,8.30
2023-03-05T22:39:06.930Z,9.13
2023-03-05T22:41:35.019Z,9.17
2023-03-05T22:44:03.106Z,8.07
2023-03-05T22:46:31.188Z,7.80
2023-03-05T22:48:59.277Z,8.13
2023-03-05T22:51:27.348Z,8.37
2023-03-05T22:53:55.920Z,9.43
2023-03-05T22:56:25.396Z,11.97
2023-03-05T22:58:53.481Z,9.57
2023-03-05T23:01:23.520Z,8.23
2023-03-05T23:03:57.340Z,8.40
2023-03-05T23:06:26.087Z,7.73
2023-03-05T23:08:54.157Z,6.23
2023-03-05T23:11:22.339Z,9.90
2023-03-05T23:13:51.952Z,9.00
2023-03-05T23:16:20.056Z,6.17
2023-03-05T23:18:48.117Z,6.83
2023-03-05T23:21:16.195Z,8.43
2023-03-05T23:23:44.272Z,8.27
2023-03-05T23:26:12.609Z,8.60
2023-03-05T23:28:40.727Z,6.70
2023-03-05T23:31:10.257Z,8.10
2023-03-05T23:33:38.306Z,6.90
2023-03-05T23:36:06.813Z,7.60
2023-03-05T23:38:36.562Z,8.37
2023-03-05T23:41:08.105Z,7.33
2023-03-05T23:43:36.470Z,9.70
2023-03-05T23:46:04.663Z,7.80
2023-03-05T23:48:34.116Z,8.70
2023-03-05T23:51:02.181Z,6.80
2023-03-05T23:53:32.883Z,7.17
2023-03-05T23:56:01.016Z,8.20
2023-03-05T23:58:29.253Z,8.47
